Terminal Aerodrome Forecast
Issued by NWS Pendleton, OR

Home | Current Version | Previous Version | Text Only | Print | Product List | Glossary On
Versions: 1 2 3 4 5 6 7 8 9 10 11 12 13 14 15 16 17 18 19
741
FTUS46 KPDT 260537
TAFPDT
TAF
KPDT 260537Z 2606/2706 23009KT P6SM -SHRA OVC050
     FM261600 27015KT P6SM -SHRA OVC050
     FM262000 27020G30KT P6SM BKN060=

USA.gov is the U.S. government's official web portal to all federal, state and local government web resources and services.